Time;durP1;ratioP1;P1;durP2;ratioP2;P2;SDS_P1;SDS_P2;PMS_P1;PMS_P2;Temp;Humidity;BMP_temperature;BMP_pressure;BME280_temperature;BME280_humidity;BME280_pressure;Samples;Min_cycle;Max_cycle;Signal;HPM_P1;HPM_P2
2023/08/13 00:00:17;;;;;;;7.00;2.20;;;;;;;;;;5110012;27;41495;-64
2023/08/13 00:02:46;;;;;;;3.35;1.80;;;;;;;;;;5108474;27;41341;-63
2023/08/13 00:05:15;;;;;;;5.20;2.20;;;;;;;;;;5109361;27;42310;-64
2023/08/13 00:07:43;;;;;;;5.70;2.42;;;;;;;;;;5109298;27;40984;-64
2023/08/13 00:10:11;;;;;;;4.47;2.47;;;;;;;;;;5109562;27;41729;-64
2023/08/13 00:12:39;;;;;;;5.70;2.15;;;;;;;;;;5108898;27;42685;-63
2023/08/13 00:15:07;;;;;;;5.68;1.90;;;;;;;;;;5108575;27;41295;-64
2023/08/13 00:17:35;;;;;;;3.03;1.70;;;;;;;;;;5108812;27;42787;-64
2023/08/13 00:20:05;;;;;;;3.45;1.98;;;;;;;;;;5109389;27;42485;-64
2023/08/13 00:22:35;;;;;;;6.68;1.90;;;;;;;;;;5108495;27;40462;-64
2023/08/13 00:25:03;;;;;;;2.35;1.60;;;;;;;;;;5109739;27;42024;-64
2023/08/13 00:27:31;;;;;;;4.25;2.00;;;;;;;;;;5109266;27;40883;-64
2023/08/13 00:29:59;;;;;;;2.85;1.60;;;;;;;;;;5108937;27;42531;-64
2023/08/13 00:32:27;;;;;;;3.10;2.00;;;;;;;;;;5108988;27;41796;-63
2023/08/13 00:34:55;;;;;;;3.80;1.92;;;;;;;;;;5109504;27;40279;-64
2023/08/13 00:37:23;;;;;;;5.22;1.92;;;;;;;;;;5108685;28;42282;-64
2023/08/13 00:39:52;;;;;;;3.90;1.67;;;;;;;;;;5107909;27;40476;-64
2023/08/13 00:42:20;;;;;;;2.40;1.50;;;;;;;;;;5109009;28;42108;-64
2023/08/13 00:44:49;;;;;;;2.78;1.58;;;;;;;;;;5108303;28;43021;-64
2023/08/13 00:47:18;;;;;;;3.00;1.85;;;;;;;;;;5098804;28;39941;-64
2023/08/13 00:49:46;;;;;;;4.32;1.98;;;;;;;;;;5086846;28;40811;-64
2023/08/13 00:52:14;;;;;;;3.28;1.65;;;;;;;;;;5086612;28;41685;-64
2023/08/13 00:54:42;;;;;;;7.35;1.75;;;;;;;;;;5088019;28;41330;-64
2023/08/13 00:57:11;;;;;;;2.88;1.50;;;;;;;;;;5088485;28;42596;-63
2023/08/13 00:59:39;;;;;;;2.92;1.40;;;;;;;;;;5088112;28;41978;-64
2023/08/13 01:02:07;;;;;;;4.90;2.05;;;;;;;;;;5088770;28;40430;-64
2023/08/13 01:04:35;;;;;;;1.55;1.20;;;;;;;;;;5086574;28;41722;-63
2023/08/13 01:07:04;;;;;;;3.88;1.70;;;;;;;;;;5087790;28;41522;-64
2023/08/13 01:09:40;;;;;;;3.25;1.67;;;;;;;;;;5087338;28;41759;-64
2023/08/13 01:12:09;;;;;;;5.47;1.70;;;;;;;;;;5104236;28;42657;-63
2023/08/13 01:14:41;;;;;;;2.95;1.40;;;;;;;;;;5107885;27;39877;-64
2023/08/13 01:17:09;;;;;;;4.63;1.48;;;;;;;;;;5106615;27;39980;-64
2023/08/13 01:19:37;;;;;;;2.53;1.58;;;;;;;;;;5107129;28;41843;-65
2023/08/13 01:22:05;;;;;;;3.42;1.67;;;;;;;;;;5107145;28;38986;-64
2023/08/13 01:24:34;;;;;;;3.38;1.67;;;;;;;;;;5107970;28;41831;-64
2023/08/13 01:27:06;;;;;;;3.47;1.77;;;;;;;;;;5107911;28;42633;-63
2023/08/13 01:29:36;;;;;;;3.38;1.58;;;;;;;;;;5107035;28;41312;-64
2023/08/13 01:32:04;;;;;;;6.65;2.05;;;;;;;;;;5106858;28;40619;-63
2023/08/13 01:34:33;;;;;;;2.83;1.67;;;;;;;;;;5107069;27;41149;-64
2023/08/13 01:37:01;;;;;;;4.95;1.73;;;;;;;;;;5108477;27;42577;-64
2023/08/13 01:39:29;;;;;;;3.30;1.80;;;;;;;;;;5106981;28;42137;-64
2023/08/13 01:41:59;;;;;;;2.65;1.48;;;;;;;;;;5106738;28;39647;-64
2023/08/13 01:44:27;;;;;;;4.60;1.85;;;;;;;;;;5107701;28;42292;-65
2023/08/13 01:46:55;;;;;;;1.67;1.20;;;;;;;;;;5105768;28;41724;-64
2023/08/13 01:49:23;;;;;;;2.40;1.70;;;;;;;;;;5108505;27;40216;-64
2023/08/13 01:51:51;;;;;;;2.72;1.45;;;;;;;;;;5108422;28;42030;-64
2023/08/13 01:54:19;;;;;;;4.93;2.00;;;;;;;;;;5107025;28;40299;-64
2023/08/13 01:56:47;;;;;;;4.57;2.00;;;;;;;;;;5107776;28;41875;-64
2023/08/13 01:59:17;;;;;;;2.60;1.20;;;;;;;;;;5106781;28;41220;-64
2023/08/13 02:01:45;;;;;;;3.78;1.48;;;;;;;;;;5105528;28;40292;-64
2023/08/13 02:04:13;;;;;;;3.83;1.52;;;;;;;;;;5106692;28;40463;-64
2023/08/13 02:06:42;;;;;;;2.88;1.55;;;;;;;;;;5105870;28;41408;-64
2023/08/13 02:09:10;;;;;;;2.80;1.42;;;;;;;;;;5105655;27;40730;-64
2023/08/13 02:11:38;;;;;;;3.28;1.45;;;;;;;;;;5106159;28;40188;-64
2023/08/13 02:14:06;;;;;;;4.72;1.50;;;;;;;;;;5106606;27;38946;-64
2023/08/13 02:16:36;;;;;;;3.25;1.63;;;;;;;;;;5105057;28;40290;-64
2023/08/13 02:19:04;;;;;;;2.88;1.73;;;;;;;;;;5107452;28;42221;-64
2023/08/13 02:21:32;;;;;;;2.40;1.38;;;;;;;;;;5105628;28;41598;-64
2023/08/13 02:24:00;;;;;;;4.57;1.52;;;;;;;;;;5107856;28;41852;-64
2023/08/13 02:26:28;;;;;;;4.15;2.03;;;;;;;;;;5106793;28;41959;-64
2023/08/13 02:28:56;;;;;;;2.45;1.33;;;;;;;;;;5113532;27;41415;-65
2023/08/13 02:31:25;;;;;;;3.35;1.42;;;;;;;;;;5112662;27;40759;-64
2023/08/13 02:33:54;;;;;;;3.85;2.05;;;;;;;;;;5114074;28;41702;-64
2023/08/13 02:36:22;;;;;;;3.85;1.63;;;;;;;;;;5112667;27;41774;-64
2023/08/13 02:38:50;;;;;;;2.65;1.65;;;;;;;;;;5097991;28;41791;-64
2023/08/13 02:41:19;;;;;;;5.55;1.83;;;;;;;;;;5129803;27;40808;-65
2023/08/13 02:43:50;;;;;;;3.53;1.77;;;;;;;;;;5113033;28;41617;-64
2023/08/13 02:46:18;;;;;;;2.83;1.35;;;;;;;;;;5114042;27;43009;-64
2023/08/13 02:48:46;;;;;;;3.55;1.25;;;;;;;;;;5114050;28;41101;-64
2023/08/13 02:51:15;;;;;;;2.42;1.25;;;;;;;;;;5113542;28;41357;-64
2023/08/13 02:53:43;;;;;;;4.03;1.55;;;;;;;;;;5113760;28;42102;-64
2023/08/13 02:56:11;;;;;;;4.07;1.67;;;;;;;;;;5114627;28;40482;-64
2023/08/13 02:58:39;;;;;;;4.85;1.50;;;;;;;;;;5112943;28;41544;-64
2023/08/13 03:01:07;;;;;;;3.40;1.58;;;;;;;;;;5114117;28;41067;-64
2023/08/13 03:03:35;;;;;;;3.58;1.58;;;;;;;;;;5110874;28;40141;-64
2023/08/13 03:06:21;;;;;;;3.80;1.58;;;;;;;;;;5111069;28;42044;-64
2023/08/13 03:08:49;;;;;;;3.25;1.63;;;;;;;;;;5113282;27;40723;-64
2023/08/13 03:11:17;;;;;;;3.30;1.85;;;;;;;;;;5113032;27;42652;-64
2023/08/13 03:13:46;;;;;;;4.45;1.42;;;;;;;;;;5129633;27;41128;-64
2023/08/13 03:16:15;;;;;;;4.28;1.38;;;;;;;;;;5129785;27;39044;-64
2023/08/13 03:18:44;;;;;;;3.58;1.45;;;;;;;;;;5111896;28;39804;-64
2023/08/13 03:21:16;;;;;;;4.07;1.40;;;;;;;;;;5112150;28;40594;-64
2023/08/13 03:23:46;;;;;;;3.45;1.17;;;;;;;;;;5113095;27;42189;-64
2023/08/13 03:26:15;;;;;;;4.95;1.58;;;;;;;;;;5123558;27;41659;-64
2023/08/13 03:28:44;;;;;;;3.38;1.35;;;;;;;;;;5112593;27;38875;-64
2023/08/13 03:31:16;;;;;;;2.90;1.23;;;;;;;;;;5112123;27;41933;-64
2023/08/13 03:33:56;;;;;;;2.17;1.17;;;;;;;;;;5110957;28;42137;-64
2023/08/13 03:36:25;;;;;;;4.30;1.30;;;;;;;;;;5111491;28;40446;-63
2023/08/13 03:38:54;;;;;;;1.85;1.10;;;;;;;;;;5112019;27;41942;-64
2023/08/13 03:41:22;;;;;;;4.05;1.63;;;;;;;;;;5109747;28;33965;-64
2023/08/13 03:43:50;;;;;;;2.75;1.48;;;;;;;;;;5110071;28;41704;-64
2023/08/13 03:46:18;;;;;;;3.60;1.67;;;;;;;;;;5108749;27;42264;-64
2023/08/13 03:48:46;;;;;;;4.47;1.60;;;;;;;;;;5108150;28;39218;-63
2023/08/13 03:51:14;;;;;;;2.78;1.20;;;;;;;;;;5108802;27;41409;-64
2023/08/13 03:53:43;;;;;;;2.80;1.30;;;;;;;;;;5107500;28;41009;-63
2023/08/13 03:56:12;;;;;;;3.97;1.45;;;;;;;;;;5109918;27;41386;-64
2023/08/13 03:58:40;;;;;;;4.60;1.70;;;;;;;;;;5107790;28;40344;-63
2023/08/13 04:01:12;;;;;;;3.50;1.48;;;;;;;;;;5107840;28;40696;-64
2023/08/13 04:03:43;;;;;;;4.00;1.33;;;;;;;;;;5100783;28;41304;-64
2023/08/13 04:06:11;;;;;;;4.47;1.48;;;;;;;;;;5108321;28;41993;-64
2023/08/13 04:08:39;;;;;;;4.88;1.85;;;;;;;;;;5108520;28;41275;-64
2023/08/13 04:11:07;;;;;;;2.95;1.55;;;;;;;;;;5109797;28;41986;-63
2023/08/13 04:13:40;;;;;;;4.45;1.60;;;;;;;;;;5107487;28;42546;-63
2023/08/13 04:16:08;;;;;;;2.22;1.08;;;;;;;;;;5109036;27;41110;-64
2023/08/13 04:18:36;;;;;;;3.63;1.65;;;;;;;;;;5107637;28;41064;-63
2023/08/13 04:21:04;;;;;;;4.18;1.15;;;;;;;;;;5107365;28;40798;-64
2023/08/13 04:23:33;;;;;;;3.92;1.40;;;;;;;;;;5107566;27;39471;-64
2023/08/13 04:26:01;;;;;;;4.18;1.38;;;;;;;;;;5108349;27;40813;-63
2023/08/13 04:28:29;;;;;;;3.75;1.65;;;;;;;;;;5107049;27;40100;-64
2023/08/13 04:30:59;;;;;;;2.72;1.48;;;;;;;;;;5109465;27;42624;-63
2023/08/13 04:33:29;;;;;;;4.13;1.60;;;;;;;;;;5106537;28;42813;-63
2023/08/13 04:35:58;;;;;;;2.92;1.27;;;;;;;;;;5106730;28;40152;-64
2023/08/13 04:38:28;;;;;;;2.92;1.30;;;;;;;;;;5124012;27;40202;-64
2023/08/13 04:40:59;;;;;;;2.22;1.00;;;;;;;;;;5115710;27;41869;-63
2023/08/13 04:43:27;;;;;;;2.33;1.30;;;;;;;;;;5125259;27;39248;-64
2023/08/13 04:45:55;;;;;;;2.58;1.15;;;;;;;;;;5128674;27;40225;-64
2023/08/13 04:48:38;;;;;;;4.07;1.60;;;;;;;;;;5129186;27;41361;-64
2023/08/13 04:51:08;;;;;;;3.80;1.33;;;;;;;;;;5085279;28;40407;-64
2023/08/13 04:53:36;;;;;;;4.10;1.58;;;;;;;;;;5086663;28;40878;-63
2023/08/13 04:56:05;;;;;;;6.55;1.50;;;;;;;;;;5087891;28;40152;-64
2023/08/13 04:58:33;;;;;;;3.88;1.58;;;;;;;;;;5109230;27;41481;-63
2023/08/13 05:01:01;;;;;;;1.80;1.13;;;;;;;;;;5114331;27;40512;-64
2023/08/13 05:03:31;;;;;;;3.63;1.48;;;;;;;;;;5126270;27;39062;-64
2023/08/13 05:05:59;;;;;;;4.05;1.63;;;;;;;;;;5129788;27;42672;-64
2023/08/13 05:08:28;;;;;;;6.20;1.50;;;;;;;;;;5108016;27;42537;-64
2023/08/13 05:10:57;;;;;;;5.65;1.70;;;;;;;;;;5106841;27;40209;-64
2023/08/13 05:13:25;;;;;;;4.63;1.52;;;;;;;;;;5106353;27;40773;-64
2023/08/13 05:15:53;;;;;;;4.65;1.73;;;;;;;;;;5114224;27;41188;-64
2023/08/13 05:18:21;;;;;;;3.90;1.35;;;;;;;;;;5125794;27;40141;-64
2023/08/13 05:20:50;;;;;;;2.42;1.50;;;;;;;;;;5113096;27;41528;-64
2023/08/13 05:23:18;;;;;;;2.85;1.20;;;;;;;;;;5108207;27;39938;-64
2023/08/13 05:25:47;;;;;;;4.00;1.58;;;;;;;;;;5127307;27;40557;-64
2023/08/13 05:28:16;;;;;;;2.13;1.08;;;;;;;;;;5117153;27;41018;-63
2023/08/13 05:30:44;;;;;;;3.88;1.58;;;;;;;;;;5107785;28;41383;-64
2023/08/13 05:33:12;;;;;;;5.07;1.58;;;;;;;;;;5105223;28;41063;-63
2023/08/13 05:35:41;;;;;;;3.60;1.50;;;;;;;;;;5108316;27;39351;-63
2023/08/13 05:38:09;;;;;;;2.25;1.17;;;;;;;;;;5111336;27;40287;-63
2023/08/13 05:40:37;;;;;;;3.67;1.55;;;;;;;;;;5118820;27;42780;-63
2023/08/13 05:43:06;;;;;;;4.20;1.52;;;;;;;;;;5109552;27;41188;-63
2023/08/13 05:45:34;;;;;;;3.97;1.38;;;;;;;;;;5111321;27;39480;-64
2023/08/13 05:48:03;;;;;;;3.22;1.20;;;;;;;;;;5115817;27;41556;-64
2023/08/13 05:50:31;;;;;;;5.00;1.40;;;;;;;;;;5112669;27;39881;-64
2023/08/13 05:52:59;;;;;;;3.33;1.42;;;;;;;;;;5112523;27;41373;-64
2023/08/13 05:55:28;;;;;;;2.50;1.00;;;;;;;;;;5116848;27;40048;-64
2023/08/13 05:57:56;;;;;;;2.95;1.35;;;;;;;;;;5108180;27;41544;-64
2023/08/13 06:00:25;;;;;;;3.40;1.15;;;;;;;;;;5106624;27;41782;-64
2023/08/13 06:02:53;;;;;;;4.95;1.30;;;;;;;;;;5107488;27;40488;-64
2023/08/13 06:05:21;;;;;;;6.90;2.00;;;;;;;;;;5107628;27;42753;-64
2023/08/13 06:07:49;;;;;;;4.20;1.50;;;;;;;;;;5107222;27;43604;-64
2023/08/13 06:10:18;;;;;;;4.40;1.50;;;;;;;;;;5107833;27;40449;-63
2023/08/13 06:12:46;;;;;;;2.47;1.63;;;;;;;;;;5122601;27;42331;-63
2023/08/13 06:15:14;;;;;;;3.47;1.38;;;;;;;;;;5117694;27;39975;-63
2023/08/13 06:17:43;;;;;;;4.78;1.40;;;;;;;;;;5107518;27;42338;-63
2023/08/13 06:20:11;;;;;;;3.65;1.73;;;;;;;;;;5107636;27;43070;-63
2023/08/13 06:22:39;;;;;;;3.08;1.45;;;;;;;;;;5106437;27;41393;-64
2023/08/13 06:25:08;;;;;;;3.25;1.48;;;;;;;;;;5108008;27;42741;-63
2023/08/13 06:27:36;;;;;;;2.75;1.33;;;;;;;;;;5101631;27;42887;-63
2023/08/13 06:30:04;;;;;;;3.38;1.42;;;;;;;;;;5086340;28;41077;-63
2023/08/13 06:32:38;;;;;;;3.70;1.20;;;;;;;;;;5086923;28;41894;-64
2023/08/13 06:35:07;;;;;;;3.13;1.30;;;;;;;;;;5094488;27;43070;-66
2023/08/13 06:37:35;;;;;;;5.93;1.83;;;;;;;;;;5127673;27;41728;-66
2023/08/13 06:40:22;;;;;;;4.57;1.98;;;;;;;;;;5111550;27;42138;-65
2023/08/13 06:42:50;;;;;;;5.45;2.30;;;;;;;;;;5106389;27;40490;-64
2023/08/13 06:45:19;;;;;;;7.88;2.22;;;;;;;;;;5107099;27;42158;-66
2023/08/13 06:47:47;;;;;;;7.88;2.80;;;;;;;;;;5123753;27;41427;-65
2023/08/13 06:50:17;;;;;;;16.13;3.03;;;;;;;;;;5114125;27;40389;-65
2023/08/13 06:52:45;;;;;;;8.50;2.05;;;;;;;;;;5121010;27;41361;-66
2023/08/13 06:55:12;;;;;;;8.05;2.65;;;;;;;;;;5127451;27;42043;-66
2023/08/13 06:57:40;;;;;;;11.05;3.08;;;;;;;;;;5127363;27;40179;-66
2023/08/13 07:00:10;;;;;;;8.00;2.30;;;;;;;;;;5127933;27;41943;-65
2023/08/13 07:02:38;;;;;;;8.23;2.50;;;;;;;;;;5122671;27;41462;-66
2023/08/13 07:05:08;;;;;;;6.95;2.42;;;;;;;;;;5127515;27;42641;-66
2023/08/13 07:07:38;;;;;;;7.05;2.50;;;;;;;;;;5127105;27;41686;-66
2023/08/13 07:10:06;;;;;;;7.32;2.85;;;;;;;;;;5113487;27;41266;-66
2023/08/13 07:12:34;;;;;;;8.88;2.63;;;;;;;;;;5106602;27;41549;-66
2023/08/13 07:15:03;;;;;;;9.98;2.70;;;;;;;;;;5109048;27;42562;-63
2023/08/13 07:17:31;;;;;;;8.65;2.80;;;;;;;;;;5117707;27;40095;-65
2023/08/13 07:19:59;;;;;;;11.73;3.35;;;;;;;;;;5131459;27;41718;-65
2023/08/13 07:22:27;;;;;;;10.38;2.78;;;;;;;;;;5109757;27;42903;-66
2023/08/13 07:24:57;;;;;;;7.38;3.10;;;;;;;;;;5109521;27;42398;-65
2023/08/13 07:27:25;;;;;;;8.43;2.75;;;;;;;;;;5110327;27;41970;-65
2023/08/13 07:29:53;;;;;;;9.05;2.92;;;;;;;;;;5110252;27;40240;-64
2023/08/13 07:32:21;;;;;;;9.70;2.47;;;;;;;;;;5108998;27;42501;-64
2023/08/13 07:34:49;;;;;;;9.05;2.53;;;;;;;;;;5110017;27;42076;-64
2023/08/13 07:37:17;;;;;;;7.45;2.42;;;;;;;;;;5110026;27;40251;-65
2023/08/13 07:39:45;;;;;;;9.98;2.75;;;;;;;;;;5108248;27;41007;-64
2023/08/13 07:42:14;;;;;;;6.38;2.95;;;;;;;;;;5109913;27;41533;-63
2023/08/13 07:44:42;;;;;;;5.72;2.38;;;;;;;;;;5109034;27;41251;-64
2023/08/13 07:47:10;;;;;;;8.27;3.05;;;;;;;;;;5108967;27;42203;-67
2023/08/13 07:49:38;;;;;;;7.15;2.63;;;;;;;;;;5108665;27;39763;-67
2023/08/13 07:52:06;;;;;;;6.18;2.92;;;;;;;;;;5109932;27;42615;-67
2023/08/13 07:54:36;;;;;;;6.88;2.75;;;;;;;;;;5111541;27;41653;-69
2023/08/13 07:57:05;;;;;;;14.52;3.60;;;;;;;;;;5120584;27;41436;-68
2023/08/13 07:59:34;;;;;;;6.78;2.40;;;;;;;;;;5109891;27;42511;-67
2023/08/13 08:02:03;;;;;;;10.13;2.53;;;;;;;;;;5110539;27;42652;-66
2023/08/13 08:04:31;;;;;;;11.27;3.28;;;;;;;;;;5111692;27;42359;-66
2023/08/13 08:06:59;;;;;;;11.00;2.53;;;;;;;;;;5108921;27;41557;-66
2023/08/13 08:09:27;;;;;;;8.38;2.45;;;;;;;;;;5109059;27;41959;-66
2023/08/13 08:11:55;;;;;;;9.40;2.90;;;;;;;;;;5109016;27;41930;-65
2023/08/13 08:14:23;;;;;;;9.32;2.58;;;;;;;;;;5107696;27;42713;-64
2023/08/13 08:16:57;;;;;;;11.55;2.95;;;;;;;;;;5108399;27;41440;-64
2023/08/13 08:19:25;;;;;;;9.00;2.50;;;;;;;;;;5108977;27;41253;-64
2023/08/13 08:21:56;;;;;;;8.13;2.42;;;;;;;;;;5108937;27;42968;-64
2023/08/13 08:24:24;;;;;;;8.45;2.63;;;;;;;;;;5109567;27;40486;-64
2023/08/13 08:26:52;;;;;;;10.93;2.10;;;;;;;;;;5113034;27;42959;-64
2023/08/13 08:29:20;;;;;;;8.32;2.50;;;;;;;;;;5122723;27;41418;-64
2023/08/13 08:31:48;;;;;;;12.05;3.08;;;;;;;;;;5108604;27;42636;-64
2023/08/13 08:34:18;;;;;;;6.70;2.53;;;;;;;;;;5126769;27;43144;-64
2023/08/13 08:36:46;;;;;;;5.90;2.55;;;;;;;;;;5129384;27;39697;-64
2023/08/13 08:39:14;;;;;;;7.57;2.30;;;;;;;;;;5125183;27;42458;-64
2023/08/13 08:41:45;;;;;;;10.55;2.88;;;;;;;;;;5109318;27;42229;-64
2023/08/13 08:44:14;;;;;;;9.35;2.40;;;;;;;;;;5130012;27;41417;-65
2023/08/13 08:46:42;;;;;;;9.82;2.97;;;;;;;;;;5130569;27;41750;-63
2023/08/13 08:49:11;;;;;;;5.35;2.33;;;;;;;;;;5129373;27;39901;-64
2023/08/13 08:51:40;;;;;;;5.32;1.85;;;;;;;;;;5129420;27;41757;-64
2023/08/13 08:54:08;;;;;;;6.72;1.83;;;;;;;;;;5129749;27;42672;-64
2023/08/13 08:56:37;;;;;;;9.70;2.85;;;;;;;;;;5123760;27;39875;-65
2023/08/13 08:59:05;;;;;;;7.07;2.38;;;;;;;;;;5109475;27;41195;-64
2023/08/13 09:01:33;;;;;;;8.75;2.78;;;;;;;;;;5108243;27;42818;-64
2023/08/13 09:04:01;;;;;;;7.85;2.03;;;;;;;;;;5108058;27;40347;-64
2023/08/13 09:06:44;;;;;;;7.20;2.33;;;;;;;;;;5108037;27;42363;-64
2023/08/13 09:09:13;;;;;;;8.20;2.45;;;;;;;;;;5108123;28;43348;-65
2023/08/13 09:11:41;;;;;;;10.93;2.47;;;;;;;;;;5112321;27;41790;-64
2023/08/13 09:14:09;;;;;;;8.55;2.58;;;;;;;;;;5124575;27;41340;-64
2023/08/13 09:16:37;;;;;;;9.30;2.95;;;;;;;;;;5087290;27;39796;-64
2023/08/13 09:19:06;;;;;;;7.65;2.22;;;;;;;;;;5087513;28;41700;-64
2023/08/13 09:21:41;;;;;;;7.18;1.90;;;;;;;;;;5086861;28;41792;-64
2023/08/13 09:24:09;;;;;;;7.47;2.50;;;;;;;;;;5087146;28;40962;-64
2023/08/13 09:26:38;;;;;;;7.20;2.08;;;;;;;;;;5091666;27;42239;-64
2023/08/13 09:29:07;;;;;;;8.15;2.22;;;;;;;;;;5125104;27;42151;-63
2023/08/13 09:31:35;;;;;;;9.98;2.67;;;;;;;;;;5107252;27;40461;-64
2023/08/13 09:34:04;;;;;;;5.72;1.95;;;;;;;;;;5108723;27;41645;-64
2023/08/13 09:36:33;;;;;;;8.23;2.25;;;;;;;;;;5110718;27;41383;-64
2023/08/13 09:39:00;;;;;;;4.55;1.80;;;;;;;;;;5125552;27;41580;-64
2023/08/13 09:41:28;;;;;;;10.27;2.70;;;;;;;;;;5107670;27;42083;-64
2023/08/13 09:43:57;;;;;;;8.38;2.65;;;;;;;;;;5108010;27;41001;-64
2023/08/13 09:46:26;;;;;;;11.73;2.47;;;;;;;;;;5106487;27;41239;-64
2023/08/13 09:48:54;;;;;;;6.88;2.20;;;;;;;;;;5108096;27;43306;-64
2023/08/13 09:51:24;;;;;;;8.32;2.53;;;;;;;;;;5107794;27;41417;-64
2023/08/13 09:54:08;;;;;;;6.82;2.38;;;;;;;;;;5111233;27;41731;-64
2023/08/13 09:56:37;;;;;;;8.70;2.40;;;;;;;;;;5128193;27;41132;-64
2023/08/13 09:59:06;;;;;;;7.90;2.72;;;;;;;;;;5128265;27;41554;-64
2023/08/13 10:01:35;;;;;;;10.68;2.92;;;;;;;;;;5128475;27;42277;-64
2023/08/13 10:04:03;;;;;;;7.90;2.40;;;;;;;;;;5128947;27;40779;-64
2023/08/13 10:06:31;;;;;;;5.95;2.17;;;;;;;;;;5127571;27;41545;-64
2023/08/13 10:08:59;;;;;;;7.25;2.30;;;;;;;;;;5126208;27;43099;-64
2023/08/13 10:11:27;;;;;;;8.48;2.35;;;;;;;;;;5106340;27;41319;-64
2023/08/13 10:13:55;;;;;;;7.75;2.65;;;;;;;;;;5107620;27;41113;-64
2023/08/13 10:16:25;;;;;;;7.10;2.47;;;;;;;;;;5107455;27;39748;-64
2023/08/13 10:18:53;;;;;;;10.10;2.75;;;;;;;;;;5107965;27;41684;-64
2023/08/13 10:21:32;;;;;;;10.13;2.50;;;;;;;;;;5108589;27;42139;-64
2023/08/13 10:24:00;;;;;;;11.00;3.38;;;;;;;;;;5128457;27;40326;-64
2023/08/13 10:26:28;;;;;;;7.28;2.55;;;;;;;;;;5127638;27;42288;-64
2023/08/13 10:28:56;;;;;;;7.65;2.35;;;;;;;;;;5122678;27;42837;-64
2023/08/13 10:31:27;;;;;;;8.40;2.65;;;;;;;;;;5107735;27;40046;-65
2023/08/13 10:34:00;;;;;;;9.18;2.28;;;;;;;;;;5113687;27;40366;-64
2023/08/13 10:36:41;;;;;;;8.77;2.33;;;;;;;;;;5127581;27;41703;-63
2023/08/13 10:39:23;;;;;;;7.38;2.20;;;;;;;;;;5104064;27;41661;-64
2023/08/13 10:41:51;;;;;;;9.90;2.45;;;;;;;;;;5103026;28;43390;-64
2023/08/13 10:44:26;;;;;;;6.75;2.38;;;;;;;;;;5106599;27;41014;-63
2023/08/13 10:46:56;;;;;;;6.65;2.45;;;;;;;;;;5106636;27;41657;-63
2023/08/13 10:49:24;;;;;;;10.77;2.65;;;;;;;;;;5108251;27;42338;-63
2023/08/13 10:51:52;;;;;;;8.32;2.53;;;;;;;;;;5092921;27;41351;-63
2023/08/13 10:54:20;;;;;;;9.48;2.20;;;;;;;;;;5107588;28;41878;-63
2023/08/13 10:56:55;;;;;;;5.00;1.73;;;;;;;;;;5108192;27;42272;-63
2023/08/13 10:59:30;;;;;;;8.02;2.20;;;;;;;;;;5110684;27;40373;-64
2023/08/13 11:02:13;;;;;;;5.28;2.13;;;;;;;;;;5102109;27;43215;-63
2023/08/13 11:04:42;;;;;;;5.68;2.20;;;;;;;;;;5109616;27;42222;-63
2023/08/13 11:07:10;;;;;;;7.53;1.98;;;;;;;;;;5110157;27;41036;-63
2023/08/13 11:09:38;;;;;;;6.72;2.28;;;;;;;;;;5097488;27;42779;-63
2023/08/13 11:12:07;;;;;;;10.25;2.40;;;;;;;;;;5109486;27;40520;-63
2023/08/13 11:14:35;;;;;;;8.18;2.38;;;;;;;;;;5090388;27;41762;-63
2023/08/13 11:17:03;;;;;;;11.05;2.70;;;;;;;;;;5099191;28;42677;-66
2023/08/13 11:19:33;;;;;;;10.25;2.55;;;;;;;;;;5110363;27;40978;-65
2023/08/13 11:22:01;;;;;;;11.05;2.40;;;;;;;;;;5097262;27;41819;-65
2023/08/13 11:24:30;;;;;;;8.82;2.13;;;;;;;;;;5098247;28;40221;-65
2023/08/13 11:26:58;;;;;;;6.25;2.20;;;;;;;;;;5098078;28;42230;-65
2023/08/13 11:29:30;;;;;;;12.07;2.35;;;;;;;;;;5089377;28;42702;-65
2023/08/13 11:31:58;;;;;;;9.45;2.80;;;;;;;;;;5100710;28;40854;-65
2023/08/13 11:34:26;;;;;;;4.78;1.90;;;;;;;;;;5108818;28;41388;-65
2023/08/13 11:36:56;;;;;;;7.70;2.30;;;;;;;;;;5101118;27;43165;-65
2023/08/13 11:39:24;;;;;;;6.18;1.85;;;;;;;;;;5107842;27;40590;-66
2023/08/13 11:41:52;;;;;;;10.13;2.33;;;;;;;;;;5109253;27;41421;-65
2023/08/13 11:44:20;;;;;;;11.75;2.95;;;;;;;;;;5093483;28;41974;-65
2023/08/13 11:46:52;;;;;;;6.20;2.10;;;;;;;;;;5106079;28;41582;-65
2023/08/13 11:49:20;;;;;;;7.82;2.17;;;;;;;;;;5107632;27;42383;-66
2023/08/13 11:51:48;;;;;;;5.13;1.90;;;;;;;;;;5120832;27;40235;-66
2023/08/13 11:54:19;;;;;;;8.95;2.38;;;;;;;;;;5117945;27;41730;-66
2023/08/13 11:56:50;;;;;;;9.45;2.35;;;;;;;;;;5113472;27;42889;-66
2023/08/13 11:59:24;;;;;;;7.13;2.38;;;;;;;;;;5129609;27;41384;-66
2023/08/13 12:01:54;;;;;;;7.95;1.90;;;;;;;;;;5108423;27;42610;-66
2023/08/13 12:04:22;;;;;;;11.05;2.35;;;;;;;;;;5108504;27;42083;-66
2023/08/13 12:06:51;;;;;;;5.72;2.00;;;;;;;;;;5109203;27;40522;-66
2023/08/13 12:09:20;;;;;;;8.63;2.55;;;;;;;;;;5109661;27;42371;-66
2023/08/13 12:11:53;;;;;;;6.13;2.20;;;;;;;;;;5109545;27;40137;-66
2023/08/13 12:14:21;;;;;;;6.55;2.03;;;;;;;;;;5108922;27;41667;-66
2023/08/13 12:16:49;;;;;;;7.50;2.15;;;;;;;;;;5109251;27;42258;-66
2023/08/13 12:19:17;;;;;;;6.25;2.17;;;;;;;;;;5109326;27;41243;-67
2023/08/13 12:21:45;;;;;;;8.30;2.50;;;;;;;;;;5108873;27;41471;-67
2023/08/13 12:24:16;;;;;;;9.93;2.60;;;;;;;;;;5109377;27;44520;-70
2023/08/13 12:26:45;;;;;;;8.07;2.17;;;;;;;;;;5109248;27;40259;-66
2023/08/13 12:29:13;;;;;;;5.75;1.67;;;;;;;;;;5114997;27;41929;-71
2023/08/13 12:31:41;;;;;;;5.72;2.20;;;;;;;;;;5130370;27;41407;-71
2023/08/13 12:34:09;;;;;;;7.22;2.00;;;;;;;;;;5129057;27;41747;-71
2023/08/13 12:36:37;;;;;;;5.47;1.95;;;;;;;;;;5114062;27;43139;-68
2023/08/13 12:39:05;;;;;;;7.05;2.25;;;;;;;;;;5107820;27;39817;-68
2023/08/13 12:41:33;;;;;;;10.27;2.50;;;;;;;;;;5120490;27;41306;-68
2023/08/13 12:44:08;;;;;;;6.50;1.80;;;;;;;;;;5128751;27;43114;-68
2023/08/13 12:46:36;;;;;;;10.13;2.38;;;;;;;;;;5127863;27;39962;-68
2023/08/13 12:49:04;;;;;;;8.30;2.60;;;;;;;;;;5127978;27;41765;-71
2023/08/13 12:51:32;;;;;;;6.25;2.38;;;;;;;;;;5127192;27;40309;-69
2023/08/13 12:54:00;;;;;;;7.65;2.15;;;;;;;;;;5127788;27;41679;-67
2023/08/13 12:56:28;;;;;;;8.88;2.10;;;;;;;;;;5126090;27;42115;-66
2023/08/13 12:58:56;;;;;;;6.55;1.90;;;;;;;;;;5127583;27;40361;-66
2023/08/13 13:01:25;;;;;;;12.95;2.25;;;;;;;;;;5129580;27;42239;-66
2023/08/13 13:03:53;;;;;;;3.17;1.58;;;;;;;;;;5128720;27;41560;-66
2023/08/13 13:06:21;;;;;;;8.50;2.10;;;;;;;;;;5129146;27;40747;-66
2023/08/13 13:08:49;;;;;;;5.45;1.75;;;;;;;;;;5108493;27;41646;-66
2023/08/13 13:11:17;;;;;;;11.20;2.30;;;;;;;;;;5108373;27;42005;-66
2023/08/13 13:13:45;;;;;;;7.22;1.88;;;;;;;;;;5107794;27;41334;-66
2023/08/13 13:16:13;;;;;;;11.98;2.10;;;;;;;;;;5107927;27;41894;-66
2023/08/13 13:18:43;;;;;;;5.25;1.92;;;;;;;;;;5108944;27;41166;-66
2023/08/13 13:21:11;;;;;;;6.30;1.45;;;;;;;;;;5108561;27;41567;-66
2023/08/13 13:23:39;;;;;;;8.38;2.20;;;;;;;;;;5107308;27;42531;-66
2023/08/13 13:26:08;;;;;;;6.50;1.77;;;;;;;;;;5108716;27;41358;-66
2023/08/13 13:28:37;;;;;;;5.95;1.70;;;;;;;;;;5108260;27;42156;-66
2023/08/13 13:31:05;;;;;;;3.65;1.67;;;;;;;;;;5107358;27;43005;-66
2023/08/13 13:33:34;;;;;;;5.82;2.00;;;;;;;;;;5107998;27;42199;-66
2023/08/13 13:36:05;;;;;;;2.40;1.30;;;;;;;;;;5108096;27;42032;-66
2023/08/13 13:38:33;;;;;;;3.55;1.65;;;;;;;;;;5107091;27;40231;-66
2023/08/13 13:41:01;;;;;;;7.32;1.92;;;;;;;;;;5108583;27;41560;-66
2023/08/13 13:43:29;;;;;;;4.25;1.70;;;;;;;;;;5108131;27;41798;-66
2023/08/13 13:45:57;;;;;;;3.83;1.35;;;;;;;;;;5107798;27;41358;-66
2023/08/13 13:48:25;;;;;;;4.90;1.92;;;;;;;;;;5108407;27;41736;-66
2023/08/13 13:50:53;;;;;;;3.00;1.73;;;;;;;;;;5107603;27;42063;-66
2023/08/13 13:53:22;;;;;;;3.80;1.60;;;;;;;;;;5108348;27;41386;-66
2023/08/13 13:55:50;;;;;;;9.18;1.48;;;;;;;;;;5108233;27;42435;-66
2023/08/13 13:58:18;;;;;;;3.47;1.50;;;;;;;;;;5107592;27;41245;-66
2023/08/13 14:00:48;;;;;;;6.10;1.98;;;;;;;;;;5108092;27;42693;-66
2023/08/13 14:03:17;;;;;;;5.10;1.40;;;;;;;;;;5107485;27;41740;-66
2023/08/13 14:05:46;;;;;;;4.28;1.48;;;;;;;;;;5106892;27;40838;-66
2023/08/13 14:08:14;;;;;;;4.30;1.30;;;;;;;;;;5107322;27;42118;-66
2023/08/13 14:10:43;;;;;;;5.25;2.00;;;;;;;;;;5107554;27;42233;-66
2023/08/13 14:13:11;;;;;;;4.82;1.23;;;;;;;;;;5107761;27;39921;-66
2023/08/13 14:15:39;;;;;;;2.70;1.42;;;;;;;;;;5107082;27;41977;-66
2023/08/13 14:18:07;;;;;;;2.40;1.23;;;;;;;;;;5108532;27;33053;-66
2023/08/13 14:20:35;;;;;;;4.00;1.50;;;;;;;;;;5105830;27;41573;-67
2023/08/13 14:23:03;;;;;;;5.45;1.38;;;;;;;;;;5107555;27;43094;-66
2023/08/13 14:25:31;;;;;;;3.63;1.45;;;;;;;;;;5107185;27;41040;-66
2023/08/13 14:28:03;;;;;;;4.47;1.42;;;;;;;;;;5107537;27;41613;-66
2023/08/13 14:30:31;;;;;;;2.92;1.25;;;;;;;;;;5106715;27;43057;-66
2023/08/13 14:32:58;;;;;;;3.10;1.20;;;;;;;;;;5108588;27;40988;-66
2023/08/13 14:35:26;;;;;;;2.00;1.17;;;;;;;;;;5107023;27;41115;-66
2023/08/13 14:37:54;;;;;;;3.25;1.30;;;;;;;;;;5108065;27;42009;-66
2023/08/13 14:40:22;;;;;;;5.25;1.75;;;;;;;;;;5106669;27;41474;-66
2023/08/13 14:42:50;;;;;;;5.43;1.90;;;;;;;;;;5107999;27;41286;-66
2023/08/13 14:45:20;;;;;;;4.90;1.60;;;;;;;;;;5107043;27;40599;-66
2023/08/13 14:47:48;;;;;;;2.10;1.20;;;;;;;;;;5107130;27;41547;-66
2023/08/13 14:50:16;;;;;;;3.20;1.23;;;;;;;;;;5107250;27;43131;-66